sensor_id;sensor_type;location;lat;lon;timestamp;pressure;altitude;pressure_sealevel;temperature;humidity
71976;BME280;68326;52.124;5.424;2024-01-15T00:01:58;100310.84;;;3.63;89.07
71976;BME280;68326;52.124;5.424;2024-01-15T00:04:25;100310.00;;;3.64;89.08
71976;BME280;68326;52.124;5.424;2024-01-15T00:06:51;100309.19;;;3.62;89.02
71976;BME280;68326;52.124;5.424;2024-01-15T00:09:18;100300.84;;;3.54;89.49
71976;BME280;68326;52.124;5.424;2024-01-15T00:11:45;100301.69;;;3.54;89.19
71976;BME280;68326;52.124;5.424;2024-01-15T00:14:12;100306.88;;;3.53;88.82
71976;BME280;68326;52.124;5.424;2024-01-15T00:16:40;100298.44;;;3.49;88.83
71976;BME280;68326;52.124;5.424;2024-01-15T00:19:07;100301.03;;;3.47;88.56
71976;BME280;68326;52.124;5.424;2024-01-15T00:21:34;100295.84;;;3.49;89.10
71976;BME280;68326;52.124;5.424;2024-01-15T00:24:00;100288.19;;;3.47;88.85
71976;BME280;68326;52.124;5.424;2024-01-15T00:26:27;100288.19;;;3.47;88.87
71976;BME280;68326;52.124;5.424;2024-01-15T00:28:53;100283.00;;;3.49;88.44
71976;BME280;68326;52.124;5.424;2024-01-15T00:31:20;100276.13;;;3.50;88.83
71976;BME280;68326;52.124;5.424;2024-01-15T00:33:46;100283.13;;;3.44;88.35
71976;BME280;68326;52.124;5.424;2024-01-15T00:36:13;100272.06;;;3.42;88.50
71976;BME280;68326;52.124;5.424;2024-01-15T00:38:41;100275.50;;;3.41;88.05
71976;BME280;68326;52.124;5.424;2024-01-15T00:41:07;100269.56;;;3.39;87.93
71976;BME280;68326;52.124;5.424;2024-01-15T00:43:34;100269.66;;;3.36;88.24
71976;BME280;68326;52.124;5.424;2024-01-15T00:46:04;100263.72;;;3.34;87.74
71976;BME280;68326;52.124;5.424;2024-01-15T00:48:31;100258.50;;;3.36;87.99
71976;BME280;68326;52.124;5.424;2024-01-15T00:50:58;100254.28;;;3.35;87.54
71976;BME280;68326;52.124;5.424;2024-01-15T00:53:25;100248.28;;;3.34;87.83
71976;BME280;68326;52.124;5.424;2024-01-15T00:55:52;100251.69;;;3.35;87.57
71976;BME280;68326;52.124;5.424;2024-01-15T00:58:19;100249.25;;;3.32;87.34
71976;BME280;68326;52.124;5.424;2024-01-15T01:00:45;100250.09;;;3.31;86.87
71976;BME280;68326;52.124;5.424;2024-01-15T01:03:12;100251.91;;;3.27;87.14
71976;BME280;68326;52.124;5.424;2024-01-15T01:05:39;100253.75;;;3.23;87.53
71976;BME280;68326;52.124;5.424;2024-01-15T01:08:05;100250.47;;;3.18;87.23
71976;BME280;68326;52.124;5.424;2024-01-15T01:10:32;100238.56;;;3.16;87.21
71976;BME280;68326;52.124;5.424;2024-01-15T01:12:58;100242.94;;;3.12;87.76
71976;BME280;68326;52.124;5.424;2024-01-15T01:15:25;100246.41;;;3.11;87.47
71976;BME280;68326;52.124;5.424;2024-01-15T01:17:52;100237.91;;;3.09;87.24
71976;BME280;68326;52.124;5.424;2024-01-15T01:20:18;100233.69;;;3.06;87.67
71976;BME280;68326;52.124;5.424;2024-01-15T01:22:45;100233.63;;;3.08;87.79
71976;BME280;68326;52.124;5.424;2024-01-15T01:25:12;100230.28;;;3.06;86.78
71976;BME280;68326;52.124;5.424;2024-01-15T01:27:38;100228.72;;;3.00;87.70
71976;BME280;68326;52.124;5.424;2024-01-15T01:30:05;100236.31;;;3.05;87.27
71976;BME280;68326;52.124;5.424;2024-01-15T01:32:32;100238.75;;;3.08;87.55
71976;BME280;68326;52.124;5.424;2024-01-15T01:34:59;100242.13;;;3.10;87.17
71976;BME280;68326;52.124;5.424;2024-01-15T01:37:26;100241.34;;;3.08;86.60
71976;BME280;68326;52.124;5.424;2024-01-15T01:39:52;100245.59;;;3.09;86.72
71976;BME280;68326;52.124;5.424;2024-01-15T01:42:19;100248.06;;;3.12;86.55
71976;BME280;68326;52.124;5.424;2024-01-15T01:44:45;100242.94;;;3.12;86.25
71976;BME280;68326;52.124;5.424;2024-01-15T01:47:13;100235.28;;;3.11;85.96
71976;BME280;68326;52.124;5.424;2024-01-15T01:49:41;100235.19;;;3.14;86.17
71976;BME280;68326;52.124;5.424;2024-01-15T01:52:09;100236.78;;;3.18;85.74
71976;BME280;68326;52.124;5.424;2024-01-15T01:54:36;100229.09;;;3.16;86.40
71976;BME280;68326;52.124;5.424;2024-01-15T01:57:04;100230.75;;;3.19;86.17
71976;BME280;68326;52.124;5.424;2024-01-15T01:59:34;100244.34;;;3.22;86.32
71976;BME280;68326;52.124;5.424;2024-01-15T02:02:03;100239.22;;;3.22;85.40
71976;BME280;68326;52.124;5.424;2024-01-15T02:04:31;100234.91;;;3.23;86.47
71976;BME280;68326;52.124;5.424;2024-01-15T02:06:59;100231.34;;;3.27;86.59
71976;BME280;68326;52.124;5.424;2024-01-15T02:09:26;100234.59;;;3.34;86.22
71976;BME280;68326;52.124;5.424;2024-01-15T02:11:53;100245.59;;;3.39;85.90
71976;BME280;68326;52.124;5.424;2024-01-15T02:14:20;100262.50;;;3.46;86.75
71976;BME280;68326;52.124;5.424;2024-01-15T02:16:46;100266.47;;;3.56;86.10
71976;BME280;68326;52.124;5.424;2024-01-15T02:19:16;100264.63;;;3.61;86.64
71976;BME280;68326;52.124;5.424;2024-01-15T02:21:44;100256.00;;;3.62;87.67
71976;BME280;68326;52.124;5.424;2024-01-15T02:24:11;100249.03;;;3.66;86.79
71976;BME280;68326;52.124;5.424;2024-01-15T02:26:37;100248.25;;;3.64;87.80
71976;BME280;68326;52.124;5.424;2024-01-15T02:29:05;100244.75;;;3.65;88.25
71976;BME280;68326;52.124;5.424;2024-01-15T02:31:35;100239.78;;;3.60;87.93
71976;BME280;68326;52.124;5.424;2024-01-15T02:34:02;100243.31;;;3.56;88.35
71976;BME280;68326;52.124;5.424;2024-01-15T02:36:29;100242.50;;;3.56;88.08
71976;BME280;68326;52.124;5.424;2024-01-15T02:38:56;100240.72;;;3.58;87.95
71976;BME280;68326;52.124;5.424;2024-01-15T02:41:23;100232.28;;;3.53;87.61
71976;BME280;68326;52.124;5.424;2024-01-15T02:43:49;100241.66;;;3.55;87.44
71976;BME280;68326;52.124;5.424;2024-01-15T02:46:16;100240.00;;;3.53;87.64
71976;BME280;68326;52.124;5.424;2024-01-15T02:48:42;100229.81;;;3.50;87.73
71976;BME280;68326;52.124;5.424;2024-01-15T02:51:09;100234.03;;;3.52;88.17
71976;BME280;68326;52.124;5.424;2024-01-15T02:53:36;100222.22;;;3.46;88.35
71976;BME280;68326;52.124;5.424;2024-01-15T02:56:03;100222.94;;;3.50;88.69
71976;BME280;68326;52.124;5.424;2024-01-15T02:58:30;100226.25;;;3.54;88.86
71976;BME280;68326;52.124;5.424;2024-01-15T03:00:57;100228.72;;;3.57;88.11
71976;BME280;68326;52.124;5.424;2024-01-15T03:03:24;100227.06;;;3.56;88.16
71976;BME280;68326;52.124;5.424;2024-01-15T03:05:51;100224.38;;;3.59;89.24
71976;BME280;68326;52.124;5.424;2024-01-15T03:08:18;100222.75;;;3.56;87.99
71976;BME280;68326;52.124;5.424;2024-01-15T03:10:44;100218.44;;;3.57;88.45
71976;BME280;68326;52.124;5.424;2024-01-15T03:13:11;100222.75;;;3.56;87.95
71976;BME280;68326;52.124;5.424;2024-01-15T03:15:37;100213.34;;;3.55;87.98
71976;BME280;68326;52.124;5.424;2024-01-15T03:18:04;100218.59;;;3.52;88.36
71976;BME280;68326;52.124;5.424;2024-01-15T03:20:31;100223.03;;;3.47;88.53
71976;BME280;68326;52.124;5.424;2024-01-15T03:22:57;100222.31;;;3.42;88.66
71976;BME280;68326;52.124;5.424;2024-01-15T03:25:24;100214.75;;;3.37;88.67
71976;BME280;68326;52.124;5.424;2024-01-15T03:27:50;100220.00;;;3.34;88.44
71976;BME280;68326;52.124;5.424;2024-01-15T03:30:17;100231.31;;;3.29;89.13
71976;BME280;68326;52.124;5.424;2024-01-15T03:32:44;100224.34;;;3.32;89.10
71976;BME280;68326;52.124;5.424;2024-01-15T03:35:10;100221.00;;;3.30;89.24
71976;BME280;68326;52.124;5.424;2024-01-15T03:37:37;100232.94;;;3.31;89.13
71976;BME280;68326;52.124;5.424;2024-01-15T03:40:04;100234.66;;;3.32;89.15
71976;BME280;68326;52.124;5.424;2024-01-15T03:42:31;100237.03;;;3.38;89.77
71976;BME280;68326;52.124;5.424;2024-01-15T03:44:57;100241.88;;;3.47;89.58
71976;BME280;68326;52.124;5.424;2024-01-15T03:47:25;100249.38;;;3.55;89.86
71976;BME280;68326;52.124;5.424;2024-01-15T03:49:52;100244.94;;;3.59;89.47
71976;BME280;68326;52.124;5.424;2024-01-15T03:52:19;100229.47;;;3.60;89.63
71976;BME280;68326;52.124;5.424;2024-01-15T03:54:45;100232.25;;;3.54;89.76
71976;BME280;68326;52.124;5.424;2024-01-15T03:57:12;100218.06;;;3.42;89.78
71976;BME280;68326;52.124;5.424;2024-01-15T03:59:40;100214.72;;;3.39;89.30
71976;BME280;68326;52.124;5.424;2024-01-15T04:02:07;100208.78;;;3.37;89.43
71976;BME280;68326;52.124;5.424;2024-01-15T04:04:34;100191.75;;;3.33;89.58
71976;BME280;68326;52.124;5.424;2024-01-15T04:07:00;100191.75;;;3.33;89.43
71976;BME280;68326;52.124;5.424;2024-01-15T04:09:27;100192.78;;;3.27;89.04
71976;BME280;68326;52.124;5.424;2024-01-15T04:11:54;100193.03;;;3.19;89.44
71976;BME280;68326;52.124;5.424;2024-01-15T04:14:20;100189.66;;;3.17;89.86
71976;BME280;68326;52.124;5.424;2024-01-15T04:16:46;100176.91;;;3.14;90.03
71976;BME280;68326;52.124;5.424;2024-01-15T04:19:13;100185.47;;;3.15;90.30
71976;BME280;68326;52.124;5.424;2024-01-15T04:21:40;100183.59;;;3.20;90.06
71976;BME280;68326;52.124;5.424;2024-01-15T04:24:07;100183.59;;;3.20;89.88
71976;BME280;68326;52.124;5.424;2024-01-15T04:26:34;100181.84;;;3.20;89.69
71976;BME280;68326;52.124;5.424;2024-01-15T04:29:00;100175.13;;;3.16;89.92
71976;BME280;68326;52.124;5.424;2024-01-15T04:31:28;100179.53;;;3.13;89.77
71976;BME280;68326;52.124;5.424;2024-01-15T04:33:55;100169.19;;;3.14;89.63
71976;BME280;68326;52.124;5.424;2024-01-15T04:36:22;100169.97;;;3.16;90.41
71976;BME280;68326;52.124;5.424;2024-01-15T04:38:48;100163.06;;;3.18;90.26
71976;BME280;68326;52.124;5.424;2024-01-15T04:41:16;100170.03;;;3.15;90.40
71976;BME280;68326;52.124;5.424;2024-01-15T04:43:42;100159.84;;;3.12;90.07
71976;BME280;68326;52.124;5.424;2024-01-15T04:46:09;100160.56;;;3.17;90.45
71976;BME280;68326;52.124;5.424;2024-01-15T04:48:36;100153.91;;;3.10;89.97
71976;BME280;68326;52.124;5.424;2024-01-15T04:51:05;100151.34;;;3.10;90.35
71976;BME280;68326;52.124;5.424;2024-01-15T04:53:35;100148.16;;;3.01;90.61
71976;BME280;68326;52.124;5.424;2024-01-15T04:56:02;100154.19;;;3.00;90.91
71976;BME280;68326;52.124;5.424;2024-01-15T04:58:28;100157.72;;;2.98;90.67
71976;BME280;68326;52.124;5.424;2024-01-15T05:00:55;100155.78;;;3.04;90.97
71976;BME280;68326;52.124;5.424;2024-01-15T05:03:22;100155.59;;;3.11;90.55
71976;BME280;68326;52.124;5.424;2024-01-15T05:05:49;100156.22;;;3.19;91.02
71976;BME280;68326;52.124;5.424;2024-01-15T05:08:15;100157.84;;;3.21;90.54
71976;BME280;68326;52.124;5.424;2024-01-15T05:10:42;100153.44;;;3.25;90.74
71976;BME280;68326;52.124;5.424;2024-01-15T05:13:08;100150.00;;;3.24;90.22
71976;BME280;68326;52.124;5.424;2024-01-15T05:15:35;100150.22;;;3.18;90.08
71976;BME280;68326;52.124;5.424;2024-01-15T05:18:01;100148.50;;;3.19;90.62
71976;BME280;68326;52.124;5.424;2024-01-15T05:20:28;100142.44;;;3.20;90.45
71976;BME280;68326;52.124;5.424;2024-01-15T05:22:55;100144.09;;;3.22;90.88
71976;BME280;68326;52.124;5.424;2024-01-15T05:25:21;100138.06;;;3.23;90.32
71976;BME280;68326;52.124;5.424;2024-01-15T05:27:48;100136.41;;;3.21;90.46
71976;BME280;68326;52.124;5.424;2024-01-15T05:30:14;100141.47;;;3.24;90.41
71976;BME280;68326;52.124;5.424;2024-01-15T05:32:41;100138.97;;;3.21;90.86
71976;BME280;68326;52.124;5.424;2024-01-15T05:35:08;100143.28;;;3.20;90.81
71976;BME280;68326;52.124;5.424;2024-01-15T05:37:34;100143.28;;;3.20;90.65
71976;BME280;68326;52.124;5.424;2024-01-15T05:40:01;100143.28;;;3.20;90.60
71976;BME280;68326;52.124;5.424;2024-01-15T05:42:27;100150.28;;;3.17;90.74
71976;BME280;68326;52.124;5.424;2024-01-15T05:44:57;100152.06;;;3.15;91.30
71976;BME280;68326;52.124;5.424;2024-01-15T05:47:25;100149.38;;;3.18;91.86
71976;BME280;68326;52.124;5.424;2024-01-15T05:49:52;100151.75;;;3.24;90.78
71976;BME280;68326;52.124;5.424;2024-01-15T05:52:19;100144.13;;;3.21;91.02
71976;BME280;68326;52.124;5.424;2024-01-15T05:54:47;100149.38;;;3.18;91.80
71976;BME280;68326;52.124;5.424;2024-01-15T05:57:14;100151.84;;;3.21;91.77
71976;BME280;68326;52.124;5.424;2024-01-15T05:59:40;100154.22;;;3.27;91.91
71976;BME280;68326;52.124;5.424;2024-01-15T06:02:07;100166.19;;;3.28;91.48
71976;BME280;68326;52.124;5.424;2024-01-15T06:04:33;100156.00;;;3.25;91.17
71976;BME280;68326;52.124;5.424;2024-01-15T06:07:00;100157.72;;;3.24;91.56
71976;BME280;68326;52.124;5.424;2024-01-15T06:09:27;100155.81;;;3.31;91.94
71976;BME280;68326;52.124;5.424;2024-01-15T06:11:55;100167.59;;;3.38;91.78
71976;BME280;68326;52.124;5.424;2024-01-15T06:14:21;100171.84;;;3.39;91.50
71976;BME280;68326;52.124;5.424;2024-01-15T06:16:48;100151.38;;;3.36;91.52
71976;BME280;68326;52.124;5.424;2024-01-15T06:19:15;100140.69;;;3.22;91.30
71976;BME280;68326;52.124;5.424;2024-01-15T06:21:42;100146.00;;;3.16;90.62
71976;BME280;68326;52.124;5.424;2024-01-15T06:24:09;100145.19;;;3.15;91.08
71976;BME280;68326;52.124;5.424;2024-01-15T06:26:36;100139.38;;;3.09;91.16
71976;BME280;68326;52.124;5.424;2024-01-15T06:29:03;100139.38;;;3.09;91.32
71976;BME280;68326;52.124;5.424;2024-01-15T06:31:29;100142.97;;;3.03;91.39
71976;BME280;68326;52.124;5.424;2024-01-15T06:33:56;100142.94;;;3.04;91.75
71976;BME280;68326;52.124;5.424;2024-01-15T06:36:23;100143.66;;;3.08;90.85
71976;BME280;68326;52.124;5.424;2024-01-15T06:38:49;100139.47;;;3.05;91.26
71976;BME280;68326;52.124;5.424;2024-01-15T06:41:16;100137.75;;;3.06;90.93
71976;BME280;68326;52.124;5.424;2024-01-15T06:43:42;100132.84;;;2.98;91.61
71976;BME280;68326;52.124;5.424;2024-01-15T06:46:09;100140.69;;;2.94;91.29
71976;BME280;68326;52.124;5.424;2024-01-15T06:48:35;100141.53;;;2.94;91.43
71976;BME280;68326;52.124;5.424;2024-01-15T06:51:02;100137.19;;;2.96;91.34
71976;BME280;68326;52.124;5.424;2024-01-15T06:53:29;100134.69;;;2.93;91.89
71976;BME280;68326;52.124;5.424;2024-01-15T06:55:55;100130.47;;;2.92;91.37
71976;BME280;68326;52.124;5.424;2024-01-15T06:58:22;100134.09;;;2.85;91.17
71976;BME280;68326;52.124;5.424;2024-01-15T07:00:48;100128.28;;;2.78;92.09
71976;BME280;68326;52.124;5.424;2024-01-15T07:03:15;100126.59;;;2.79;92.05
71976;BME280;68326;52.124;5.424;2024-01-15T07:05:41;100123.22;;;2.77;91.79
71976;BME280;68326;52.124;5.424;2024-01-15T07:08:08;100118.13;;;2.75;91.54
71976;BME280;68326;52.124;5.424;2024-01-15T07:10:34;100119.13;;;2.70;91.89
71976;BME280;68326;52.124;5.424;2024-01-15T07:13:03;100110.59;;;2.69;92.47
71976;BME280;68326;52.124;5.424;2024-01-15T07:15:31;100121.63;;;2.73;92.88
71976;BME280;68326;52.124;5.424;2024-01-15T07:17:57;100121.53;;;2.76;92.85
71976;BME280;68326;52.124;5.424;2024-01-15T07:20:24;100149.53;;;2.85;92.80
71976;BME280;68326;52.124;5.424;2024-01-15T07:22:51;100154.78;;;2.80;92.16
71976;BME280;68326;52.124;5.424;2024-01-15T07:25:17;100177.19;;;2.75;92.98
71976;BME280;68326;52.124;5.424;2024-01-15T07:27:44;100167.81;;;2.74;92.34
71976;BME280;68326;52.124;5.424;2024-01-15T07:30:11;100159.31;;;2.72;92.31
71976;BME280;68326;52.124;5.424;2024-01-15T07:32:38;100145.63;;;2.72;92.85
71976;BME280;68326;52.124;5.424;2024-01-15T07:35:05;100145.63;;;2.72;93.11
71976;BME280;68326;52.124;5.424;2024-01-15T07:37:32;100145.72;;;2.69;92.25
71976;BME280;68326;52.124;5.424;2024-01-15T07:39:59;100138.81;;;2.71;92.59
71976;BME280;68326;52.124;5.424;2024-01-15T07:42:27;100145.63;;;2.72;92.88
71976;BME280;68326;52.124;5.424;2024-01-15T07:44:53;100138.66;;;2.75;92.83
71976;BME280;68326;52.124;5.424;2024-01-15T07:47:20;100145.28;;;2.82;92.54
71976;BME280;68326;52.124;5.424;2024-01-15T07:49:46;100146.97;;;2.85;92.88
71976;BME280;68326;52.124;5.424;2024-01-15T07:52:13;100157.06;;;2.91;92.42
71976;BME280;68326;52.124;5.424;2024-01-15T07:54:40;100165.50;;;2.95;92.66
71976;BME280;68326;52.124;5.424;2024-01-15T07:57:06;100155.97;;;2.98;92.55
71976;BME280;68326;52.124;5.424;2024-01-15T07:59:34;100167.22;;;2.94;92.43
71976;BME280;68326;52.124;5.424;2024-01-15T08:02:01;100157.06;;;2.91;92.00
71976;BME280;68326;52.124;5.424;2024-01-15T08:04:28;100164.94;;;2.85;92.22
71976;BME280;68326;52.124;5.424;2024-01-15T08:06:54;100164.00;;;2.88;92.96
71976;BME280;68326;52.124;5.424;2024-01-15T08:09:21;100154.56;;;2.88;92.00
71976;BME280;68326;52.124;5.424;2024-01-15T08:11:48;100151.16;;;2.88;92.45
71976;BME280;68326;52.124;5.424;2024-01-15T08:14:16;100139.16;;;2.88;92.32
71976;BME280;68326;52.124;5.424;2024-01-15T08:16:42;100133.16;;;2.88;92.41
71976;BME280;68326;52.124;5.424;2024-01-15T08:19:10;100131.34;;;2.91;92.87
71976;BME280;68326;52.124;5.424;2024-01-15T08:21:36;100128.81;;;2.90;92.29
71976;BME280;68326;52.124;5.424;2024-01-15T08:24:03;100140.91;;;2.86;92.37
71976;BME280;68326;52.124;5.424;2024-01-15T08:26:30;100146.16;;;2.83;92.08
71976;BME280;68326;52.124;5.424;2024-01-15T08:28:56;100152.00;;;2.88;92.35
71976;BME280;68326;52.124;5.424;2024-01-15T08:31:23;100153.63;;;2.91;92.61
71976;BME280;68326;52.124;5.424;2024-01-15T08:33:50;100168.16;;;2.92;92.03
71976;BME280;68326;52.124;5.424;2024-01-15T08:36:18;100163.06;;;2.90;92.49
71976;BME280;68326;52.124;5.424;2024-01-15T08:38:44;100155.34;;;2.90;92.16
71976;BME280;68326;52.124;5.424;2024-01-15T08:41:11;100145.13;;;2.89;91.81
71976;BME280;68326;52.124;5.424;2024-01-15T08:43:37;100146.81;;;2.90;91.69
71976;BME280;68326;52.124;5.424;2024-01-15T08:46:04;100146.78;;;2.91;92.48
71976;BME280;68326;52.124;5.424;2024-01-15T08:48:30;100145.06;;;2.90;92.12
71976;BME280;68326;52.124;5.424;2024-01-15T08:50:57;100147.53;;;2.93;92.21
71976;BME280;68326;52.124;5.424;2024-01-15T08:53:24;100149.03;;;3.02;92.32
71976;BME280;68326;52.124;5.424;2024-01-15T08:55:51;100145.31;;;3.11;92.25
71976;BME280;68326;52.124;5.424;2024-01-15T08:58:17;100151.16;;;3.16;91.39
71976;BME280;68326;52.124;5.424;2024-01-15T09:00:44;100153.72;;;3.16;91.62
71976;BME280;68326;52.124;5.424;2024-01-15T09:03:11;100151.16;;;3.16;91.35
71976;BME280;68326;52.124;5.424;2024-01-15T09:05:38;100156.59;;;3.06;91.48
71976;BME280;68326;52.124;5.424;2024-01-15T09:08:05;100160.94;;;3.04;91.87
71976;BME280;68326;52.124;5.424;2024-01-15T09:10:31;100157.41;;;3.07;91.70
71976;BME280;68326;52.124;5.424;2024-01-15T09:12:58;100169.25;;;3.13;91.79
71976;BME280;68326;52.124;5.424;2024-01-15T09:15:24;100177.66;;;3.18;91.60
71976;BME280;68326;52.124;5.424;2024-01-15T09:17:51;100174.66;;;3.03;91.50
71976;BME280;68326;52.124;5.424;2024-01-15T09:20:17;100164.66;;;2.94;91.17
71976;BME280;68326;52.124;5.424;2024-01-15T09:22:44;100159.53;;;2.94;91.21
71976;BME280;68326;52.124;5.424;2024-01-15T09:25:12;100148.25;;;2.98;91.58
71976;BME280;68326;52.124;5.424;2024-01-15T09:27:38;100150.91;;;2.95;91.50
71976;BME280;68326;52.124;5.424;2024-01-15T09:30:06;100155.97;;;2.98;90.78
71976;BME280;68326;52.124;5.424;2024-01-15T09:32:33;100157.53;;;3.04;90.68
71976;BME280;68326;52.124;5.424;2024-01-15T09:34:59;100159.19;;;3.05;91.40
71976;BME280;68326;52.124;5.424;2024-01-15T09:37:26;100159.00;;;3.11;91.18
71976;BME280;68326;52.124;5.424;2024-01-15T09:40:12;100158.06;;;3.14;90.94
71976;BME280;68326;52.124;5.424;2024-01-15T09:42:41;100156.22;;;3.19;91.31
71976;BME280;68326;52.124;5.424;2024-01-15T09:45:09;100148.84;;;3.35;92.10
71976;BME280;68326;52.124;5.424;2024-01-15T09:47:37;100162.03;;;3.51;91.65
71976;BME280;68326;52.124;5.424;2024-01-15T09:50:10;100159.63;;;3.46;90.61
71976;BME280;68326;52.124;5.424;2024-01-15T09:52:36;100152.22;;;3.37;89.96
71976;BME280;68326;52.124;5.424;2024-01-15T09:55:03;100154.97;;;3.31;90.48
71976;BME280;68326;52.124;5.424;2024-01-15T09:57:32;100153.63;;;3.19;90.46
71976;BME280;68326;52.124;5.424;2024-01-15T10:00:01;100161.88;;;3.29;90.13
71976;BME280;68326;52.124;5.424;2024-01-15T10:02:30;100160.41;;;3.21;90.45
71976;BME280;68326;52.124;5.424;2024-01-15T10:04:57;100164.75;;;3.19;90.75
71976;BME280;68326;52.124;5.424;2024-01-15T10:07:25;100165.75;;;3.15;91.15
71976;BME280;68326;52.124;5.424;2024-01-15T10:09:52;100166.19;;;3.28;91.04
71976;BME280;68326;52.124;5.424;2024-01-15T10:12:19;100175.59;;;3.56;91.57
71976;BME280;68326;52.124;5.424;2024-01-15T10:14:47;100171.34;;;3.81;90.74
71976;BME280;68326;52.124;5.424;2024-01-15T10:17:15;100160.22;;;3.81;89.57
71976;BME280;68326;52.124;5.424;2024-01-15T10:19:42;100147.84;;;3.65;89.70
71976;BME280;68326;52.124;5.424;2024-01-15T10:22:14;100158.44;;;3.56;90.15
71976;BME280;68326;52.124;5.424;2024-01-15T10:24:41;100167.19;;;3.77;91.22
71976;BME280;68326;52.124;5.424;2024-01-15T10:27:09;100174.34;;;3.94;89.63
71976;BME280;68326;52.124;5.424;2024-01-15T10:29:36;100185.31;;;3.74;89.77
71976;BME280;68326;52.124;5.424;2024-01-15T10:32:06;100187.13;;;3.71;89.28
71976;BME280;68326;52.124;5.424;2024-01-15T10:34:33;100176.44;;;3.56;89.32
71976;BME280;68326;52.124;5.424;2024-01-15T10:37:01;100173.44;;;3.43;88.94
71976;BME280;68326;52.124;5.424;2024-01-15T10:39:29;100174.78;;;3.27;89.22
71976;BME280;68326;52.124;5.424;2024-01-15T10:41:56;100170.03;;;3.15;89.73
71976;BME280;68326;52.124;5.424;2024-01-15T10:44:22;100170.09;;;3.13;91.01
71976;BME280;68326;52.124;5.424;2024-01-15T10:46:49;100168.06;;;3.23;91.24
71976;BME280;68326;52.124;5.424;2024-01-15T10:49:16;100163.34;;;3.64;92.33
71976;BME280;68326;52.124;5.424;2024-01-15T10:51:46;100161.63;;;3.90;91.11
71976;BME280;68326;52.124;5.424;2024-01-15T10:54:14;100169.63;;;3.80;90.32
71976;BME280;68326;52.124;5.424;2024-01-15T10:56:41;100175.44;;;3.87;90.95
71976;BME280;68326;52.124;5.424;2024-01-15T10:59:08;100173.66;;;4.14;91.23
71976;BME280;68326;52.124;5.424;2024-01-15T11:01:37;100181.66;;;4.32;90.58
71976;BME280;68326;52.124;5.424;2024-01-15T11:04:04;100181.53;;;4.35;89.92
71976;BME280;68326;52.124;5.424;2024-01-15T11:06:42;100193.66;;;4.31;89.78
71976;BME280;68326;52.124;5.424;2024-01-15T11:09:08;100179.84;;;4.34;89.27
71976;BME280;68326;52.124;5.424;2024-01-15T11:11:38;100193.94;;;4.23;88.82
71976;BME280;68326;52.124;5.424;2024-01-15T11:14:06;100194.00;;;4.22;89.39
71976;BME280;68326;52.124;5.424;2024-01-15T11:16:55;100196.34;;;4.28;89.59
71976;BME280;68326;52.124;5.424;2024-01-15T11:19:51;100197.88;;;4.34;89.33
71976;BME280;68326;52.124;5.424;2024-01-15T11:25:18;100203.53;;;4.18;89.14
71976;BME280;68326;52.124;5.424;2024-01-15T11:27:50;100202.88;;;4.13;88.66
71976;BME280;68326;52.124;5.424;2024-01-15T11:30:25;100206.41;;;4.11;88.96
71976;BME280;68326;52.124;5.424;2024-01-15T11:32:52;100201.88;;;4.17;89.17
71976;BME280;68326;52.124;5.424;2024-01-15T11:35:19;100197.81;;;4.35;89.39
71976;BME280;68326;52.124;5.424;2024-01-15T11:42:46;100191.97;;;4.55;86.20
71976;BME280;68326;52.124;5.424;2024-01-15T11:45:19;100203.16;;;4.54;87.18
71976;BME280;68326;52.124;5.424;2024-01-15T11:50:43;100204.06;;;4.77;85.98
71976;BME280;68326;52.124;5.424;2024-01-15T11:53:18;100205.28;;;4.66;85.96
71976;BME280;68326;52.124;5.424;2024-01-15T11:55:51;100217.34;;;4.66;85.54
71976;BME280;68326;52.124;5.424;2024-01-15T11:58:18;100205.56;;;4.59;86.23
71976;BME280;68326;52.124;5.424;2024-01-15T12:00:45;100203.94;;;4.56;86.04
71976;BME280;68326;52.124;5.424;2024-01-15T12:03:13;100195.38;;;4.56;85.54
71976;BME280;68326;52.124;5.424;2024-01-15T12:05:40;100203.16;;;4.54;85.98
71976;BME280;68326;52.124;5.424;2024-01-15T12:08:10;100204.84;;;4.55;85.38
71976;BME280;68326;52.124;5.424;2024-01-15T12:10:38;100214.47;;;4.50;85.53
71976;BME280;68326;52.124;5.424;2024-01-15T12:15:40;100231.44;;;4.56;85.57
71976;BME280;68326;52.124;5.424;2024-01-15T12:18:12;100228.81;;;4.57;85.91
71976;BME280;68326;52.124;5.424;2024-01-15T12:20:41;100231.41;;;4.57;85.49
71976;BME280;68326;52.124;5.424;2024-01-15T12:23:09;100245.66;;;4.42;86.36
71976;BME280;68326;52.124;5.424;2024-01-15T12:25:36;100245.03;;;4.36;86.22
71976;BME280;68326;52.124;5.424;2024-01-15T12:28:04;100247.69;;;4.33;87.27
71976;BME280;68326;52.124;5.424;2024-01-15T12:30:33;100245.34;;;4.26;86.83
71976;BME280;68326;52.124;5.424;2024-01-15T12:33:04;100241.75;;;4.31;87.50
71976;BME280;68326;52.124;5.424;2024-01-15T12:35:31;100245.88;;;4.36;87.23
71976;BME280;68326;52.124;5.424;2024-01-15T12:38:00;100255.09;;;4.42;87.34
71976;BME280;68326;52.124;5.424;2024-01-15T12:40:28;100262.91;;;4.40;86.88
71976;BME280;68326;52.124;5.424;2024-01-15T12:42:55;100274.78;;;4.19;86.38
71976;BME280;68326;52.124;5.424;2024-01-15T12:45:21;100262.19;;;4.10;87.69
71976;BME280;68326;52.124;5.424;2024-01-15T12:47:48;100261.50;;;4.05;87.20
71976;BME280;68326;52.124;5.424;2024-01-15T12:50:16;100264.38;;;3.96;87.34
71976;BME280;68326;52.124;5.424;2024-01-15T12:52:46;100261.22;;;3.87;87.38
71976;BME280;68326;52.124;5.424;2024-01-15T12:55:13;100264.19;;;3.75;86.98
71976;BME280;68326;52.124;5.424;2024-01-15T12:57:40;100259.59;;;3.85;87.85
71976;BME280;68326;52.124;5.424;2024-01-15T13:00:07;100256.06;;;3.87;87.01
71976;BME280;68326;52.124;5.424;2024-01-15T13:02:39;100254.38;;;3.86;87.65
71976;BME280;68326;52.124;5.424;2024-01-15T13:05:10;100256.16;;;3.84;87.50
71976;BME280;68326;52.124;5.424;2024-01-15T13:07:38;100249.34;;;3.83;87.65
71976;BME280;68326;52.124;5.424;2024-01-15T13:10:05;100255.47;;;3.79;87.38
71976;BME280;68326;52.124;5.424;2024-01-15T13:12:33;100261.09;;;3.64;87.14
71976;BME280;68326;52.124;5.424;2024-01-15T13:15:00;100270.50;;;3.65;87.49